sensor_id;sensor_type;location;lat;lon;timestamp;pressure;altitude;pressure_sealevel;temperature;humidity
48652;BME280;34442;52.362;-1.302;2022-12-07T00:01:31;101113.03;;;2.80;100.00
48652;BME280;34442;52.362;-1.302;2022-12-07T00:04:18;101110.75;;;2.76;100.00
48652;BME280;34442;52.362;-1.302;2022-12-07T00:07:03;101118.56;;;2.67;100.00
48652;BME280;34442;52.362;-1.302;2022-12-07T00:09:49;101109.09;;;2.65;100.00
48652;BME280;34442;52.362;-1.302;2022-12-07T00:12:35;101111.44;;;2.58;100.00
48652;BME280;34442;52.362;-1.302;2022-12-07T00:15:21;101109.50;;;2.60;100.00
48652;BME280;34442;52.362;-1.302;2022-12-07T00:18:07;101108.66;;;2.60;100.00
48652;BME280;34442;52.362;-1.302;2022-12-07T00:20:52;101109.34;;;2.62;100.00
48652;BME280;34442;52.362;-1.302;2022-12-07T00:23:39;101107.25;;;2.65;100.00
48652;BME280;34442;52.362;-1.302;2022-12-07T00:26:31;101102.63;;;2.67;100.00
48652;BME280;34442;52.362;-1.302;2022-12-07T00:29:19;101099.56;;;2.62;100.00
48652;BME280;34442;52.362;-1.302;2022-12-07T00:32:05;101094.13;;;2.64;100.00
48652;BME280;34442;52.362;-1.302;2022-12-07T00:34:50;101096.50;;;2.67;100.00
48652;BME280;34442;52.362;-1.302;2022-12-07T00:37:36;101106.16;;;2.68;100.00
48652;BME280;34442;52.362;-1.302;2022-12-07T00:40:22;101102.09;;;2.64;100.00
48652;BME280;34442;52.362;-1.302;2022-12-07T00:43:07;101106.84;;;2.60;100.00
48652;BME280;34442;52.362;-1.302;2022-12-07T00:45:53;101107.25;;;2.56;100.00
48652;BME280;34442;52.362;-1.302;2022-12-07T00:48:40;101103.88;;;2.63;100.00
48652;BME280;34442;52.362;-1.302;2022-12-07T00:51:26;101112.16;;;2.60;100.00
48652;BME280;34442;52.362;-1.302;2022-12-07T00:54:12;101111.16;;;2.52;100.00
48652;BME280;34442;52.362;-1.302;2022-12-07T00:56:58;101104.59;;;2.56;100.00
48652;BME280;34442;52.362;-1.302;2022-12-07T00:59:44;101102.78;;;2.56;100.00
48652;BME280;34442;52.362;-1.302;2022-12-07T01:02:29;101095.66;;;2.57;100.00
48652;BME280;34442;52.362;-1.302;2022-12-07T01:05:18;101094.00;;;2.56;100.00
48652;BME280;34442;52.362;-1.302;2022-12-07T01:08:07;101085.31;;;2.54;100.00
48652;BME280;34442;52.362;-1.302;2022-12-07T01:11:00;101088.69;;;2.56;100.00
48652;BME280;34442;52.362;-1.302;2022-12-07T01:13:46;101091.34;;;2.56;100.00
48652;BME280;34442;52.362;-1.302;2022-12-07T01:16:33;101086.97;;;2.55;100.00
48652;BME280;34442;52.362;-1.302;2022-12-07T01:19:18;101090.34;;;2.57;100.00
48652;BME280;34442;52.362;-1.302;2022-12-07T01:22:04;101093.16;;;2.55;100.00
48652;BME280;34442;52.362;-1.302;2022-12-07T01:24:50;101089.09;;;2.51;100.00
48652;BME280;34442;52.362;-1.302;2022-12-07T01:27:36;101084.75;;;2.50;100.00
48652;BME280;34442;52.362;-1.302;2022-12-07T01:30:22;101087.28;;;2.52;100.00
48652;BME280;34442;52.362;-1.302;2022-12-07T01:33:07;101097.59;;;2.55;100.00
48652;BME280;34442;52.362;-1.302;2022-12-07T01:35:53;101095.50;;;2.48;100.00
48652;BME280;34442;52.362;-1.302;2022-12-07T01:38:39;101099.25;;;2.46;100.00
48652;BME280;34442;52.362;-1.302;2022-12-07T01:41:27;101091.44;;;2.44;100.00
48652;BME280;34442;52.362;-1.302;2022-12-07T01:47:06;101081.41;;;2.48;100.00
48652;BME280;34442;52.362;-1.302;2022-12-07T01:49:52;101084.75;;;2.50;100.00
48652;BME280;34442;52.362;-1.302;2022-12-07T01:52:39;101086.69;;;2.48;100.00
48652;BME280;34442;52.362;-1.302;2022-12-07T01:55:25;101080.56;;;2.47;100.00
48652;BME280;34442;52.362;-1.302;2022-12-07T01:58:14;101074.69;;;2.54;100.00
48652;BME280;34442;52.362;-1.302;2022-12-07T02:01:01;101076.78;;;2.50;100.00
48652;BME280;34442;52.362;-1.302;2022-12-07T02:03:48;101080.00;;;2.54;100.00
48652;BME280;34442;52.362;-1.302;2022-12-07T02:06:35;101079.72;;;2.57;100.00
48652;BME280;34442;52.362;-1.302;2022-12-07T02:09:21;101076.25;;;2.56;100.00
48652;BME280;34442;52.362;-1.302;2022-12-07T02:12:07;101078.06;;;2.56;100.00
48652;BME280;34442;52.362;-1.302;2022-12-07T02:14:52;101077.91;;;2.57;100.00
48652;BME280;34442;52.362;-1.302;2022-12-07T02:20:40;101080.25;;;2.51;100.00
48652;BME280;34442;52.362;-1.302;2022-12-07T02:35:56;101066.56;;;2.36;100.00
48652;BME280;34442;52.362;-1.302;2022-12-07T02:38:52;101061.53;;;2.42;100.00
48652;BME280;34442;52.362;-1.302;2022-12-07T02:41:49;101065.16;;;2.41;100.00
48652;BME280;34442;52.362;-1.302;2022-12-07T02:44:36;101063.78;;;2.37;100.00
48652;BME280;34442;52.362;-1.302;2022-12-07T02:47:24;101059.84;;;2.32;100.00
48652;BME280;34442;52.362;-1.302;2022-12-07T02:50:10;101068.09;;;2.29;100.00
48652;BME280;34442;52.362;-1.302;2022-12-07T02:52:57;101062.09;;;2.27;100.00
48652;BME280;34442;52.362;-1.302;2022-12-07T02:55:43;101060.09;;;2.19;100.00
48652;BME280;34442;52.362;-1.302;2022-12-07T03:05:04;101050.34;;;2.29;100.00
48652;BME280;34442;52.362;-1.302;2022-12-07T03:10:59;101054.81;;;2.29;100.00
48652;BME280;34442;52.362;-1.302;2022-12-07T03:17:00;101057.31;;;2.30;100.00
48652;BME280;34442;52.362;-1.302;2022-12-07T03:19:48;101049.94;;;2.24;100.00
48652;BME280;34442;52.362;-1.302;2022-12-07T03:22:38;101042.66;;;2.26;100.00
48652;BME280;34442;52.362;-1.302;2022-12-07T03:25:26;101044.63;;;2.24;100.00
48652;BME280;34442;52.362;-1.302;2022-12-07T03:28:16;101045.59;;;2.23;100.00
48652;BME280;34442;52.362;-1.302;2022-12-07T03:37:11;101038.16;;;2.17;100.00
48652;BME280;34442;52.362;-1.302;2022-12-07T03:40:46;101036.50;;;2.16;100.00
48652;BME280;34442;52.362;-1.302;2022-12-07T03:43:35;101027.00;;;2.13;100.00
48652;BME280;34442;52.362;-1.302;2022-12-07T03:57:49;101032.03;;;2.16;100.00
48652;BME280;34442;52.362;-1.302;2022-12-07T04:00:37;101025.75;;;2.17;100.00
48652;BME280;34442;52.362;-1.302;2022-12-07T04:03:23;101021.28;;;2.18;100.00
48652;BME280;34442;52.362;-1.302;2022-12-07T04:06:08;101020.84;;;2.13;100.00
48652;BME280;34442;52.362;-1.302;2022-12-07T04:08:54;101022.16;;;2.18;100.00
48652;BME280;34442;52.362;-1.302;2022-12-07T04:11:40;101027.56;;;2.17;100.00
48652;BME280;34442;52.362;-1.302;2022-12-07T04:14:26;101018.19;;;2.13;100.00
48652;BME280;34442;52.362;-1.302;2022-12-07T04:17:12;101018.63;;;2.08;100.00
48652;BME280;34442;52.362;-1.302;2022-12-07T04:19:57;101025.72;;;2.08;100.00
48652;BME280;34442;52.362;-1.302;2022-12-07T04:22:43;101018.63;;;2.08;100.00
48652;BME280;34442;52.362;-1.302;2022-12-07T04:25:29;101026.41;;;2.10;100.00
48652;BME280;34442;52.362;-1.302;2022-12-07T04:28:14;101025.06;;;2.15;100.00
48652;BME280;34442;52.362;-1.302;2022-12-07T04:31:00;101030.22;;;2.17;100.00
48652;BME280;34442;52.362;-1.302;2022-12-07T04:33:46;101026.88;;;2.15;100.00
48652;BME280;34442;52.362;-1.302;2022-12-07T04:36:32;101019.59;;;2.17;100.00
48652;BME280;34442;52.362;-1.302;2022-12-07T04:39:32;101025.19;;;2.14;100.00
48652;BME280;34442;52.362;-1.302;2022-12-07T04:42:18;101030.78;;;2.20;100.00
48652;BME280;34442;52.362;-1.302;2022-12-07T04:45:04;101021.28;;;2.18;100.00
48652;BME280;34442;52.362;-1.302;2022-12-07T04:47:50;101019.03;;;2.13;100.00
48652;BME280;34442;52.362;-1.302;2022-12-07T04:50:35;101014.88;;;2.11;100.00
48652;BME280;34442;52.362;-1.302;2022-12-07T04:53:23;101016.22;;;2.05;100.00
48652;BME280;34442;52.362;-1.302;2022-12-07T04:56:09;101026.13;;;2.03;100.00
48652;BME280;34442;52.362;-1.302;2022-12-07T04:58:55;101020.69;;;1.95;100.00
48652;BME280;34442;52.362;-1.302;2022-12-07T05:01:41;101017.72;;;1.88;100.00
48652;BME280;34442;52.362;-1.302;2022-12-07T05:04:26;101015.22;;;1.87;100.00
48652;BME280;34442;52.362;-1.302;2022-12-07T05:07:12;101001.13;;;1.86;100.00
48652;BME280;34442;52.362;-1.302;2022-12-07T05:09:58;101013.66;;;1.84;100.00
48652;BME280;34442;52.362;-1.302;2022-12-07T05:12:43;101011.16;;;1.83;100.00
48652;BME280;34442;52.362;-1.302;2022-12-07T05:15:30;101006.50;;;1.75;100.00
48652;BME280;34442;52.362;-1.302;2022-12-07T05:18:16;101005.28;;;1.89;100.00
48652;BME280;34442;52.362;-1.302;2022-12-07T05:21:01;100995.56;;;1.89;100.00
48652;BME280;34442;52.362;-1.302;2022-12-07T05:23:47;101005.47;;;1.97;100.00
48652;BME280;34442;52.362;-1.302;2022-12-07T05:26:33;100998.63;;;1.94;100.00
48652;BME280;34442;52.362;-1.302;2022-12-07T05:29:19;101011.56;;;1.88;100.00
48652;BME280;34442;52.362;-1.302;2022-12-07T05:32:05;101000.53;;;1.83;100.00
48652;BME280;34442;52.362;-1.302;2022-12-07T05:34:50;101003.88;;;1.75;100.00
48652;BME280;34442;52.362;-1.302;2022-12-07T05:37:36;100991.72;;;1.72;100.00
48652;BME280;34442;52.362;-1.302;2022-12-07T05:40:22;100990.28;;;1.68;100.00
48652;BME280;34442;52.362;-1.302;2022-12-07T05:43:07;100990.44;;;1.67;100.00
48652;BME280;34442;52.362;-1.302;2022-12-07T05:45:53;100991.09;;;1.59;100.00
48652;BME280;34442;52.362;-1.302;2022-12-07T05:48:39;100997.78;;;1.54;100.00
48652;BME280;34442;52.362;-1.302;2022-12-07T05:51:25;100996.38;;;1.49;100.00
48652;BME280;34442;52.362;-1.302;2022-12-07T05:54:11;100993.97;;;1.46;100.00
48652;BME280;34442;52.362;-1.302;2022-12-07T05:56:57;100995.66;;;1.47;100.00
48652;BME280;34442;52.362;-1.302;2022-12-07T05:59:42;100993.16;;;1.46;100.00
48652;BME280;34442;52.362;-1.302;2022-12-07T06:02:28;100994.53;;;1.40;100.00
48652;BME280;34442;52.362;-1.302;2022-12-07T06:05:14;100994.53;;;1.40;100.00
48652;BME280;34442;52.362;-1.302;2022-12-07T06:08:00;100992.72;;;1.41;100.00
48652;BME280;34442;52.362;-1.302;2022-12-07T06:10:46;100996.59;;;1.37;100.00
48652;BME280;34442;52.362;-1.302;2022-12-07T06:13:52;100997.28;;;1.39;100.00
48652;BME280;34442;52.362;-1.302;2022-12-07T06:16:38;100995.63;;;1.38;100.00
48652;BME280;34442;52.362;-1.302;2022-12-07T06:19:26;100992.00;;;1.39;100.00
48652;BME280;34442;52.362;-1.302;2022-12-07T06:22:12;100996.03;;;1.33;100.00
48652;BME280;34442;52.362;-1.302;2022-12-07T06:24:59;100990.50;;;1.46;100.00
48652;BME280;34442;52.362;-1.302;2022-12-07T06:27:44;100993.16;;;1.46;100.00
48652;BME280;34442;52.362;-1.302;2022-12-07T06:30:30;100992.81;;;1.39;100.00
48652;BME280;34442;52.362;-1.302;2022-12-07T06:33:16;100990.06;;;1.41;100.00
48652;BME280;34442;52.362;-1.302;2022-12-07T06:36:02;100988.75;;;1.35;100.00
48652;BME280;34442;52.362;-1.302;2022-12-07T06:38:48;100984.69;;;1.31;100.00
48652;BME280;34442;52.362;-1.302;2022-12-07T06:41:34;100988.31;;;1.30;100.00
48652;BME280;34442;52.362;-1.302;2022-12-07T06:44:21;100989.88;;;1.33;100.00
48652;BME280;34442;52.362;-1.302;2022-12-07T06:47:07;100979.41;;;1.31;100.00
48652;BME280;34442;52.362;-1.302;2022-12-07T06:49:54;100978.72;;;1.29;100.00
48652;BME280;34442;52.362;-1.302;2022-12-07T06:52:40;100977.72;;;1.30;100.00
48652;BME280;34442;52.362;-1.302;2022-12-07T06:55:26;100980.53;;;1.29;100.00
48652;BME280;34442;52.362;-1.302;2022-12-07T06:58:12;100976.75;;;1.31;100.00
48652;BME280;34442;52.362;-1.302;2022-12-07T07:00:57;100985.72;;;1.40;100.00
48652;BME280;34442;52.362;-1.302;2022-12-07T07:03:44;100990.19;;;1.39;100.00
48652;BME280;34442;52.362;-1.302;2022-12-07T07:06:31;100984.44;;;1.34;100.00
48652;BME280;34442;52.362;-1.302;2022-12-07T07:09:17;100992.00;;;1.39;100.00
48652;BME280;34442;52.362;-1.302;2022-12-07T07:12:02;100984.31;;;1.36;100.00
48652;BME280;34442;52.362;-1.302;2022-12-07T07:14:48;100988.91;;;1.34;100.00
48652;BME280;34442;52.362;-1.302;2022-12-07T07:17:34;100997.00;;;1.32;100.00
48652;BME280;34442;52.362;-1.302;2022-12-07T07:20:20;100990.00;;;1.31;100.00
48652;BME280;34442;52.362;-1.302;2022-12-07T07:23:06;100989.56;;;1.26;100.00
48652;BME280;34442;52.362;-1.302;2022-12-07T07:25:53;100988.72;;;1.26;100.00
48652;BME280;34442;52.362;-1.302;2022-12-07T07:28:38;100988.03;;;1.23;100.00
48652;BME280;34442;52.362;-1.302;2022-12-07T07:31:24;100993.31;;;1.23;100.00
48652;BME280;34442;52.362;-1.302;2022-12-07T07:34:10;100986.72;;;1.18;100.00
48652;BME280;34442;52.362;-1.302;2022-12-07T07:36:59;100983.81;;;1.21;100.00
48652;BME280;34442;52.362;-1.302;2022-12-07T07:39:45;100980.84;;;1.14;100.00
48652;BME280;34442;52.362;-1.302;2022-12-07T07:42:31;100975.44;;;1.16;100.00
48652;BME280;34442;52.362;-1.302;2022-12-07T07:45:17;100981.81;;;1.13;100.00
48652;BME280;34442;52.362;-1.302;2022-12-07T07:48:03;100983.78;;;1.11;100.00
48652;BME280;34442;52.362;-1.302;2022-12-07T07:50:49;100981.25;;;1.10;100.00
48652;BME280;34442;52.362;-1.302;2022-12-07T07:53:35;100978.47;;;1.11;100.00
48652;BME280;34442;52.362;-1.302;2022-12-07T07:56:20;100981.78;;;1.04;100.00
48652;BME280;34442;52.362;-1.302;2022-12-07T07:59:06;100983.41;;;0.95;100.00
48652;BME280;34442;52.362;-1.302;2022-12-07T08:01:52;100982.44;;;0.96;100.00
48652;BME280;34442;52.362;-1.302;2022-12-07T08:04:37;100980.03;;;0.93;100.00
48652;BME280;34442;52.362;-1.302;2022-12-07T08:07:23;100986.41;;;0.90;100.00
48652;BME280;34442;52.362;-1.302;2022-12-07T08:10:11;100990.28;;;0.86;100.00
48652;BME280;34442;52.362;-1.302;2022-12-07T08:12:56;100994.03;;;0.84;100.00
48652;BME280;34442;52.362;-1.302;2022-12-07T08:16:04;100993.22;;;0.83;100.00
48652;BME280;34442;52.362;-1.302;2022-12-07T08:18:49;100997.97;;;0.89;100.00
48652;BME280;34442;52.362;-1.302;2022-12-07T08:21:35;100991.44;;;0.93;100.00
48652;BME280;34442;52.362;-1.302;2022-12-07T08:24:21;100988.16;;;1.01;100.00
48652;BME280;34442;52.362;-1.302;2022-12-07T08:27:07;100989.59;;;1.05;100.00
48652;BME280;34442;52.362;-1.302;2022-12-07T08:29:52;100978.16;;;1.05;100.00
48652;BME280;34442;52.362;-1.302;2022-12-07T08:32:38;100985.13;;;1.06;100.00
48652;BME280;34442;52.362;-1.302;2022-12-07T08:35:24;100986.09;;;1.05;100.00
48652;BME280;34442;52.362;-1.302;2022-12-07T08:38:10;100988.41;;;0.98;100.00
48652;BME280;34442;52.362;-1.302;2022-12-07T08:40:57;100998.25;;;1.07;100.00
48652;BME280;34442;52.362;-1.302;2022-12-07T08:43:43;100995.22;;;1.12;100.00
48652;BME280;34442;52.362;-1.302;2022-12-07T08:46:38;100991.91;;;1.19;100.00
48652;BME280;34442;52.362;-1.302;2022-12-07T08:49:31;100979.22;;;1.23;100.00
48652;BME280;34442;52.362;-1.302;2022-12-07T08:52:19;100983.03;;;1.30;100.00
48652;BME280;34442;52.362;-1.302;2022-12-07T08:55:05;100979.28;;;1.33;100.00
48652;BME280;34442;52.362;-1.302;2022-12-07T08:57:51;100981.53;;;1.37;100.00
48652;BME280;34442;52.362;-1.302;2022-12-07T09:00:37;100977.91;;;1.38;100.00
48652;BME280;34442;52.362;-1.302;2022-12-07T09:03:23;100974.28;;;1.39;100.00
48652;BME280;34442;52.362;-1.302;2022-12-07T09:06:08;100977.66;;;1.41;100.00
48652;BME280;34442;52.362;-1.302;2022-12-07T09:08:58;100979.31;;;1.42;100.00
48652;BME280;34442;52.362;-1.302;2022-12-07T09:11:45;100982.81;;;1.43;100.00
48652;BME280;34442;52.362;-1.302;2022-12-07T09:14:31;100987.13;;;1.44;100.00
48652;BME280;34442;52.362;-1.302;2022-12-07T09:17:17;100986.03;;;1.46;100.00
48652;BME280;34442;52.362;-1.302;2022-12-07T09:20:04;100986.78;;;1.58;100.00
48652;BME280;34442;52.362;-1.302;2022-12-07T09:22:51;100980.94;;;1.64;100.00
48652;BME280;34442;52.362;-1.302;2022-12-07T09:25:36;100986.81;;;1.68;100.00
48652;BME280;34442;52.362;-1.302;2022-12-07T09:28:22;100979.44;;;1.71;100.00
48652;BME280;34442;52.362;-1.302;2022-12-07T09:31:08;100981.00;;;1.74;100.00
48652;BME280;34442;52.362;-1.302;2022-12-07T09:33:58;100976.38;;;1.76;100.00
48652;BME280;34442;52.362;-1.302;2022-12-07T09:36:44;100988.69;;;1.77;100.00
48652;BME280;34442;52.362;-1.302;2022-12-07T09:39:30;100980.72;;;1.77;100.00
48652;BME280;34442;52.362;-1.302;2022-12-07T09:42:36;100976.69;;;1.83;100.00
48652;BME280;34442;52.362;-1.302;2022-12-07T09:45:27;100978.25;;;1.85;100.00
48652;BME280;34442;52.362;-1.302;2022-12-07T09:48:18;100976.53;;;1.84;100.00
48652;BME280;34442;52.362;-1.302;2022-12-07T09:54:04;100983.81;;;1.92;100.00
48652;BME280;34442;52.362;-1.302;2022-12-07T09:56:50;100980.75;;;1.96;100.00
48652;BME280;34442;52.362;-1.302;2022-12-07T09:59:35;100976.28;;;1.97;100.00
48652;BME280;34442;52.362;-1.302;2022-12-07T10:03:00;100981.34;;;2.10;100.00
48652;BME280;34442;52.362;-1.302;2022-12-07T10:05:49;100974.94;;;2.12;100.00
48652;BME280;34442;52.362;-1.302;2022-12-07T10:08:36;100969.09;;;2.18;100.00
48652;BME280;34442;52.362;-1.302;2022-12-07T10:11:24;100973.84;;;2.15;100.00
48652;BME280;34442;52.362;-1.302;2022-12-07T10:14:12;100971.34;;;2.23;100.00
48652;BME280;34442;52.362;-1.302;2022-12-07T10:16:59;100965.72;;;2.16;100.00
48652;BME280;34442;52.362;-1.302;2022-12-07T10:19:45;100961.69;;;2.22;100.00
48652;BME280;34442;52.362;-1.302;2022-12-07T10:22:31;100957.91;;;2.24;100.00
48652;BME280;34442;52.362;-1.302;2022-12-07T10:25:19;100962.81;;;2.29;100.00
48652;BME280;34442;52.362;-1.302;2022-12-07T10:30:59;100955.00;;;2.28;100.00
48652;BME280;34442;52.362;-1.302;2022-12-07T10:33:58;100947.16;;;2.26;100.00
48652;BME280;34442;52.362;-1.302;2022-12-07T10:36:44;100945.38;;;2.27;100.00
48652;BME280;34442;52.362;-1.302;2022-12-07T10:39:40;100955.69;;;2.30;100.00
48652;BME280;34442;52.362;-1.302;2022-12-07T10:42:29;100954.31;;;2.35;100.00
48652;BME280;34442;52.362;-1.302;2022-12-07T10:45:16;100950.53;;;2.38;100.00
48652;BME280;34442;52.362;-1.302;2022-12-07T10:51:12;100931.94;;;2.57;100.00
48652;BME280;34442;52.362;-1.302;2022-12-07T10:54:12;100934.44;;;2.59;100.00
48652;BME280;34442;52.362;-1.302;2022-12-07T11:00:01;100925.81;;;2.57;100.00
48652;BME280;34442;52.362;-1.302;2022-12-07T11:12:16;100920.34;;;2.58;100.00
48652;BME280;34442;52.362;-1.302;2022-12-07T11:21:07;100904.16;;;2.61;100.00
48652;BME280;34442;52.362;-1.302;2022-12-07T11:27:11;100892.41;;;2.73;100.00
48652;BME280;34442;52.362;-1.302;2022-12-07T11:36:31;100877.53;;;2.90;100.00
48652;BME280;34442;52.362;-1.302;2022-12-07T11:42:15;100866.63;;;2.84;100.00
48652;BME280;34442;52.362;-1.302;2022-12-07T11:45:15;100868.88;;;2.88;100.00
48652;BME280;34442;52.362;-1.302;2022-12-07T11:48:19;100864.69;;;2.86;100.00
48652;BME280;34442;52.362;-1.302;2022-12-07T11:51:09;100858.94;;;2.90;100.00
48652;BME280;34442;52.362;-1.302;2022-12-07T11:54:00;100854.63;;;2.89;100.00
48652;BME280;34442;52.362;-1.302;2022-12-07T11:56:49;100850.44;;;2.87;100.00
48652;BME280;34442;52.362;-1.302;2022-12-07T11:59:39;100854.91;;;2.86;100.00
48652;BME280;34442;52.362;-1.302;2022-12-07T12:02:39;100847.66;;;2.88;100.00
48652;BME280;34442;52.362;-1.302;2022-12-07T12:05:29;100843.28;;;2.87;100.00
48652;BME280;34442;52.362;-1.302;2022-12-07T12:08:23;100838.53;;;2.91;100.00
48652;BME280;34442;52.362;-1.302;2022-12-07T12:20:50;100830.56;;;2.91;100.00
48652;BME280;34442;52.362;-1.302;2022-12-07T12:23:42;100831.72;;;2.88;100.00
48652;BME280;34442;52.362;-1.302;2022-12-07T12:26:32;100818.28;;;2.90;100.00
48652;BME280;34442;52.362;-1.302;2022-12-07T12:29:39;100821.09;;;2.88;100.00
48652;BME280;34442;52.362;-1.302;2022-12-07T12:35:29;100814.75;;;2.99;100.00
48652;BME280;34442;52.362;-1.302;2022-12-07T12:38:29;100810.25;;;2.99;100.00
48652;BME280;34442;52.362;-1.302;2022-12-07T12:47:39;100791.94;;;3.06;100.00
48652;BME280;34442;52.362;-1.302;2022-12-07T12:50:27;100793.16;;;3.12;100.00
48652;BME280;34442;52.362;-1.302;2022-12-07T12:53:23;100790.75;;;3.18;100.00
48652;BME280;34442;52.362;-1.302;2022-12-07T12:56:35;100790.59;;;3.20;100.00
48652;BME280;34442;52.362;-1.302;2022-12-07T12:59:28;100775.50;;;3.20;100.00
48652;BME280;34442;52.362;-1.302;2022-12-07T13:08:03;100764.81;;;3.30;100.00
48652;BME280;34442;52.362;-1.302;2022-12-07T13:11:19;100763.53;;;3.34;100.00
48652;BME280;34442;52.362;-1.302;2022-12-07T13:20:43;100748.03;;;3.47;100.00
48652;BME280;34442;52.362;-1.302;2022-12-07T13:29:21;100738.94;;;3.50;100.00
48652;BME280;34442;52.362;-1.302;2022-12-07T13:32:26;100734.13;;;3.54;100.00
48652;BME280;34442;52.362;-1.302;2022-12-07T13:35:36;100732.19;;;3.56;100.00
48652;BME280;34442;52.362;-1.302;2022-12-07T13:38:29;100725.72;;;3.58;100.00
48652;BME280;34442;52.362;-1.302;2022-12-07T13:41:19;100723.22;;;3.57;100.00
48652;BME280;34442;52.362;-1.302;2022-12-07T13:44:15;100724.44;;;3.62;100.00
48652;BME280;34442;52.362;-1.302;2022-12-07T13:53:12;100698.00;;;3.61;100.00
48652;BME280;34442;52.362;-1.302;2022-12-07T13:56:00;100705.81;;;3.62;100.00
48652;BME280;34442;52.362;-1.302;2022-12-07T13:58:46;100701.19;;;3.64;100.00
48652;BME280;34442;52.362;-1.302;2022-12-07T14:01:32;100693.38;;;3.63;100.00
48652;BME280;34442;52.362;-1.302;2022-12-07T14:04:30;100697.16;;;3.60;100.00
48652;BME280;34442;52.362;-1.302;2022-12-07T14:07:23;100682.34;;;3.58;100.00
48652;BME280;34442;52.362;-1.302;2022-12-07T14:11:09;100688.19;;;3.61;100.00
48652;BME280;34442;52.362;-1.302;2022-12-07T14:13:37;100685.00;;;3.58;100.00
48652;BME280;34442;52.362;-1.302;2022-12-07T14:16:33;100682.34;;;3.58;100.00
48652;BME280;34442;52.362;-1.302;2022-12-07T14:19:41;100678.72;;;3.59;100.00
48652;BME280;34442;52.362;-1.302;2022-12-07T14:22:33;100672.19;;;3.53;100.00
48652;BME280;34442;52.362;-1.302;2022-12-07T14:25:25;100674.16;;;3.51;100.00
48652;BME280;34442;52.362;-1.302;2022-12-07T14:28:32;100672.34;;;3.52;100.00
48652;BME280;34442;52.362;-1.302;2022-12-07T14:31:24;100674.31;;;3.49;100.00
48652;BME280;34442;52.362;-1.302;2022-12-07T14:34:13;100668.69;;;3.53;100.00
48652;BME280;34442;52.362;-1.302;2022-12-07T14:36:59;100675.16;;;3.50;100.00
48652;BME280;34442;52.362;-1.302;2022-12-07T14:39:45;100663.00;;;3.47;100.00
48652;BME280;34442;52.362;-1.302;2022-12-07T14:42:31;100667.31;;;3.48;100.00
48652;BME280;34442;52.362;-1.302;2022-12-07T14:45:22;100660.19;;;3.49;100.00
48652;BME280;34442;52.362;-1.302;2022-12-07T14:48:13;100654.19;;;3.47;100.00
48652;BME280;34442;52.362;-1.302;2022-12-07T14:50:59;100651.53;;;3.47;100.00
48652;BME280;34442;52.362;-1.302;2022-12-07T14:53:52;100647.88;;;3.48;100.00
48652;BME280;34442;52.362;-1.302;2022-12-07T14:56:38;100646.34;;;3.45;100.00
48652;BME280;34442;52.362;-1.302;2022-12-07T14:59:24;100649.00;;;3.45;100.00
48652;BME280;34442;52.362;-1.302;2022-12-07T15:02:12;100650.00;;;3.44;100.00
48652;BME280;34442;52.362;-1.302;2022-12-07T15:04:58;100644.03;;;3.42;100.00
48652;BME280;34442;52.362;-1.302;2022-12-07T15:07:44;100647.81;;;3.40;100.00
48652;BME280;34442;52.362;-1.302;2022-12-07T15:10:33;100656.63;;;3.40;100.00
48652;BME280;34442;52.362;-1.302;2022-12-07T15:13:19;100654.25;;;3.37;100.00
48652;BME280;34442;52.362;-1.302;2022-12-07T15:16:23;100650.94;;;3.35;100.00
48652;BME280;34442;52.362;-1.302;2022-12-07T15:19:17;100654.88;;;3.31;100.00
48652;BME280;34442;52.362;-1.302;2022-12-07T15:22:04;100650.03;;;3.27;100.00
48652;BME280;34442;52.362;-1.302;2022-12-07T15:24:50;100645.47;;;3.19;100.00
48652;BME280;34442;52.362;-1.302;2022-12-07T15:27:35;100650.97;;;3.17;100.00
48652;BME280;34442;52.362;-1.302;2022-12-07T15:30:21;100642.09;;;3.09;100.00
48652;BME280;34442;52.362;-1.302;2022-12-07T15:33:07;100635.53;;;3.03;100.00
48652;BME280;34442;52.362;-1.302;2022-12-07T15:35:52;100636.16;;;2.97;100.00
48652;BME280;34442;52.362;-1.302;2022-12-07T15:38:38;100628.66;;;2.92;100.00
48652;BME280;34442;52.362;-1.302;2022-12-07T15:41:24;100625.00;;;2.93;100.00
48652;BME280;34442;52.362;-1.302;2022-12-07T15:44:14;100629.78;;;2.90;100.00
48652;BME280;34442;52.362;-1.302;2022-12-07T15:47:18;100619.16;;;2.90;100.00
48652;BME280;34442;52.362;-1.302;2022-12-07T15:50:06;100614.97;;;2.87;100.00
48652;BME280;34442;52.362;-1.302;2022-12-07T15:52:52;100603.31;;;2.80;100.00
48652;BME280;34442;52.362;-1.302;2022-12-07T15:55:39;100601.31;;;2.82;100.00
48652;BME280;34442;52.362;-1.302;2022-12-07T15:58:25;100598.81;;;2.81;100.00
48652;BME280;34442;52.362;-1.302;2022-12-07T16:01:13;100595.00;;;2.83;100.00
48652;BME280;34442;52.362;-1.302;2022-12-07T16:03:59;100590.31;;;2.77;100.00
48652;BME280;34442;52.362;-1.302;2022-12-07T16:06:44;100591.00;;;2.79;100.00
48652;BME280;34442;52.362;-1.302;2022-12-07T16:09:30;100582.66;;;2.74;100.00
48652;BME280;34442;52.362;-1.302;2022-12-07T16:12:16;100584.09;;;2.68;100.00
48652;BME280;34442;52.362;-1.302;2022-12-07T16:15:02;100582.56;;;2.66;100.00
48652;BME280;34442;52.362;-1.302;2022-12-07T16:17:48;100584.41;;;2.65;100.00
48652;BME280;34442;52.362;-1.302;2022-12-07T16:20:34;100585.53;;;2.63;100.00
48652;BME280;34442;52.362;-1.302;2022-12-07T16:23:20;100592.81;;;2.61;100.00
48652;BME280;34442;52.362;-1.302;2022-12-07T16:26:10;100599.09;;;2.60;100.00
48652;BME280;34442;52.362;-1.302;2022-12-07T16:28:57;100599.78;;;2.62;100.00
48652;BME280;34442;52.362;-1.302;2022-12-07T16:31:43;100597.41;;;2.59;100.00
48652;BME280;34442;52.362;-1.302;2022-12-07T16:34:29;100592.09;;;2.59;100.00
48652;BME280;34442;52.362;-1.302;2022-12-07T16:37:15;100602.59;;;2.60;100.00
48652;BME280;34442;52.362;-1.302;2022-12-07T16:40:01;100597.28;;;2.60;100.00
48652;BME280;34442;52.362;-1.302;2022-12-07T16:42:47;100598.03;;;2.53;100.00